Time;durP1;ratioP1;P1;durP2;ratioP2;P2;SDS_P1;SDS_P2;PMS_P1;PMS_P2;Temp;Humidity;BMP_temperature;BMP_pressure;BME280_temperature;BME280_humidity;BME280_pressure;Samples;Min_cycle;Max_cycle;Signal;HPM_P1;HPM_P2
2022/04/22 04:00:12;;;;;;;19.20;17.27;;;8.10;99.90;;;;;;6055696;23;20359;31
2022/04/22 04:02:39;;;;;;;20.57;18.47;;;8.00;99.90;;;;;;4976419;28;20486;-65
2022/04/22 04:05:06;;;;;;;22.00;18.67;;;8.00;99.90;;;;;;4978131;28;20455;-65
2022/04/22 04:07:33;;;;;;;20.80;18.80;;;7.90;99.90;;;;;;4977943;28;20458;-65
2022/04/22 04:18:13;;;;;;;21.17;19.17;;;7.80;99.90;;;;;;4958324;29;20815;-65
2022/04/22 04:23:25;;;;;;;23.23;20.73;;;7.80;99.90;;;;;;4958245;29;20419;-65
2022/04/22 04:25:51;;;;;;;22.43;20.07;;;7.80;99.90;;;;;;4957374;28;20467;-65
2022/04/22 04:28:18;;;;;;;22.67;20.53;;;7.80;99.90;;;;;;4957836;29;20551;-64
2022/04/22 04:30:47;;;;;;;23.63;21.20;;;7.80;99.90;;;;;;4958201;29;20480;-63
2022/04/22 04:33:14;;;;;;;23.83;20.10;;;7.80;99.90;;;;;;4958253;28;20490;-64
2022/04/22 04:35:46;;;;;;;24.30;21.70;;;7.80;99.90;;;;;;4957873;29;20555;-64
2022/04/22 04:38:13;;;;;;;24.50;22.10;;;7.80;99.90;;;;;;4958087;29;20440;-65
2022/04/22 04:40:40;;;;;;;24.63;21.87;;;7.80;99.90;;;;;;4958329;29;20494;-66
2022/04/22 04:43:07;;;;;;;24.60;22.13;;;7.80;99.90;;;;;;4958915;29;20465;-65
2022/04/22 04:45:34;;;;;;;24.87;22.37;;;7.80;99.90;;;;;;4957895;29;20463;-66
2022/04/22 04:48:02;;;;;;;25.13;22.67;;;7.80;99.90;;;;;;4957666;29;20460;-64
2022/04/22 04:50:30;;;;;;;24.80;22.30;;;7.90;99.90;;;;;;4957800;29;20485;-66
2022/04/22 04:52:58;;;;;;;25.73;23.03;;;7.90;99.90;;;;;;4957476;29;20962;-65
2022/04/22 04:55:25;;;;;;;26.57;23.67;;;7.90;99.90;;;;;;4957873;29;20463;-65
2022/04/22 04:57:52;;;;;;;28.87;25.50;;;8.00;99.90;;;;;;4957701;29;20534;-65
2022/04/22 05:00:19;;;;;;;24.87;22.47;;;8.00;99.90;;;;;;4957381;29;20870;-67
2022/04/22 05:02:46;;;;;;;27.17;24.43;;;8.00;99.90;;;;;;4958123;29;20462;-66
2022/04/22 05:05:14;;;;;;;25.93;23.23;;;8.00;99.90;;;;;;4957476;29;20460;-65
2022/04/22 05:07:50;;;;;;;26.67;23.03;;;8.10;99.90;;;;;;4957517;29;20456;-66
2022/04/22 05:10:18;;;;;;;26.13;23.50;;;8.20;99.90;;;;;;4957291;29;20455;-65
2022/04/22 05:12:45;;;;;;;27.33;24.50;;;8.30;99.90;;;;;;4957613;28;20547;-66
2022/04/22 05:15:12;;;;;;;25.80;23.00;;;8.30;99.90;;;;;;4957461;29;20470;-65
2022/04/22 05:17:41;;;;;;;26.17;23.47;;;8.30;99.90;;;;;;4957365;29;20456;-64
2022/04/22 05:20:09;;;;;;;26.20;23.50;;;8.30;99.90;;;;;;4957720;29;20455;-66
2022/04/22 05:22:37;;;;;;;27.50;24.07;;;8.30;99.90;;;;;;4956727;28;20471;-66
2022/04/22 05:25:05;;;;;;;24.63;22.03;;;8.30;99.90;;;;;;4957199;29;20460;-66
2022/04/22 05:27:32;;;;;;;25.47;22.20;;;8.40;99.90;;;;;;4957625;29;20456;-66
2022/04/22 05:32:47;;;;;;;26.83;24.03;;;8.60;99.90;;;;;;4958363;29;20464;-66
2022/04/22 05:35:15;;;;;;;25.77;23.00;;;8.70;99.90;;;;;;4961172;28;20440;-66
2022/04/22 05:37:48;;;;;;;23.90;21.40;;;8.90;99.90;;;;;;4966521;28;20488;-65
2022/04/22 05:40:16;;;;;;;23.13;20.73;;;9.10;99.90;;;;;;4968532;29;20447;-65
2022/04/22 05:42:43;;;;;;;25.83;23.33;;;9.20;99.90;;;;;;4964582;29;20550;-64
2022/04/22 05:45:11;;;;;;;24.33;21.07;;;9.50;99.90;;;;;;4957647;29;20455;-64
2022/04/22 05:47:38;;;;;;;22.77;20.57;;;9.80;99.90;;;;;;4956968;29;20467;-64
2022/04/22 05:50:07;;;;;;;23.37;20.90;;;10.10;99.90;;;;;;4956604;29;20480;-64
2022/04/22 05:52:35;;;;;;;22.23;19.53;;;10.30;99.90;;;;;;4956685;29;20476;-64
2022/04/22 05:55:05;;;;;;;23.73;21.30;;;10.60;99.90;;;;;;4956593;29;20464;-65
2022/04/22 05:57:32;;;;;;;23.17;20.77;;;10.80;99.90;;;;;;4956902;29;20555;-66
2022/04/22 05:59:59;;;;;;;22.93;20.50;;;11.00;99.90;;;;;;4956615;29;20448;-64
2022/04/22 06:02:26;;;;;;;23.00;20.57;;;11.20;99.90;;;;;;4956399;29;20998;-63
2022/04/22 06:04:54;;;;;;;22.40;20.20;;;11.50;99.90;;;;;;4956526;29;20452;-63
2022/04/22 06:07:20;;;;;;;22.23;20.00;;;11.80;99.90;;;;;;4956711;29;20459;-64
2022/04/22 06:12:33;;;;;;;21.70;19.63;;;12.50;99.90;;;;;;4956591;29;20458;-66
2022/04/22 06:15:01;;;;;;;23.17;20.97;;;12.90;99.90;;;;;;4956392;29;20452;-65
2022/04/22 06:17:29;;;;;;;24.47;22.17;;;13.30;99.90;;;;;;4956315;29;20455;-66
2022/04/22 06:19:56;;;;;;;22.60;20.50;;;13.50;99.90;;;;;;4956425;29;20824;-66
2022/04/22 06:22:24;;;;;;;23.73;21.43;;;13.70;99.90;;;;;;4955795;29;21007;-66
2022/04/22 06:24:51;;;;;;;24.47;21.97;;;14.00;99.90;;;;;;4956066;29;20460;-66
2022/04/22 06:27:24;;;;;;;26.77;21.97;;;14.10;99.90;;;;;;4955945;29;20519;-66
2022/04/22 06:29:53;;;;;;;23.60;21.30;;;14.20;99.90;;;;;;4955991;29;20511;-66
2022/04/22 06:32:21;;;;;;;25.67;21.87;;;14.20;99.90;;;;;;4955598;29;20475;-65
2022/04/22 06:34:48;;;;;;;23.23;21.03;;;14.40;99.90;;;;;;4956193;29;20456;-65
2022/04/22 06:37:15;;;;;;;24.73;22.33;;;14.60;99.90;;;;;;4955906;29;20463;-66
2022/04/22 06:47:59;;;;;;;24.00;21.50;;;15.10;99.90;;;;;;4955190;28;20547;-65
2022/04/22 06:50:26;;;;;;;24.63;22.00;;;15.00;99.90;;;;;;4956558;28;20487;-71
2022/04/22 06:52:53;;;;;;;25.23;22.67;;;15.00;99.90;;;;;;4955790;29;20456;-65
2022/04/22 06:55:20;;;;;;;23.20;20.70;;;15.20;99.90;;;;;;4955932;29;20456;-66
2022/04/22 06:57:49;;;;;;;22.97;20.73;;;15.50;99.90;;;;;;4956332;28;20463;-65
2022/04/22 07:00:19;;;;;;;22.67;20.40;;;15.80;99.90;;;;;;4955716;29;21051;-65
2022/04/22 07:02:46;;;;;;;23.40;21.27;;;16.00;99.90;;;;;;4955737;29;20448;-66
2022/04/22 07:05:13;;;;;;;22.97;20.53;;;16.40;99.90;;;;;;4958925;29;20864;-68
2022/04/22 07:07:40;;;;;;;23.73;21.23;;;16.70;99.90;;;;;;4956164;29;20452;-65
2022/04/22 07:10:08;;;;;;;23.37;21.17;;;17.10;98.30;;;;;;4957821;29;20987;-66
2022/04/22 07:12:35;;;;;;;24.03;21.57;;;17.20;97.30;;;;;;4956628;28;20490;-65
2022/04/22 07:15:04;;;;;;;21.70;19.50;;;17.20;96.70;;;;;;4955431;29;20460;-65
2022/04/22 07:17:33;;;;;;;22.37;20.27;;;17.40;95.80;;;;;;4955422;28;20459;-65
2022/04/22 07:20:03;;;;;;;21.87;19.83;;;17.50;95.30;;;;;;4955176;28;20975;-66
2022/04/22 07:22:30;;;;;;;21.97;19.90;;;17.50;94.90;;;;;;4955172;29;20472;-66
2022/04/22 07:24:57;;;;;;;22.90;20.90;;;17.40;94.90;;;;;;4955409;29;20455;-67
2022/04/22 07:27:28;;;;;;;24.43;20.03;;;17.70;95.80;;;;;;4955533;28;20491;-66
2022/04/22 07:29:57;;;;;;;20.07;18.27;;;17.90;94.60;;;;;;4955377;28;20475;-66
2022/04/22 07:32:24;;;;;;;22.00;19.80;;;18.20;92.70;;;;;;4955527;29;20628;-66
2022/04/22 07:34:52;;;;;;;20.37;18.53;;;18.40;92.20;;;;;;4955677;29;20483;-67
2022/04/22 07:37:20;;;;;;;22.83;20.77;;;18.70;91.30;;;;;;4955469;28;20467;-65
2022/04/22 07:39:47;;;;;;;21.00;19.07;;;18.30;92.30;;;;;;4955479;29;20459;-66
2022/04/22 07:42:17;;;;;;;20.97;19.07;;;18.30;92.10;;;;;;4955499;29;20531;-66
2022/04/22 07:47:31;;;;;;;22.10;20.20;;;18.70;91.40;;;;;;4954991;29;20782;-66
2022/04/22 07:50:00;;;;;;;20.30;18.50;;;19.20;90.90;;;;;;4955213;29;20490;-66
2022/04/22 07:52:27;;;;;;;21.60;19.60;;;19.70;90.50;;;;;;4955071;29;20549;-65
2022/04/22 07:54:54;;;;;;;20.83;19.13;;;20.10;86.70;;;;;;4955131;29;20463;-67
2022/04/22 07:57:21;;;;;;;20.20;18.40;;;20.40;83.80;;;;;;4955153;28;20466;-66
2022/04/22 07:59:49;;;;;;;21.03;19.23;;;20.70;82.60;;;;;;4955877;28;20487;-66
2022/04/22 08:02:16;;;;;;;20.27;18.53;;;20.40;82.90;;;;;;4958134;29;20578;-66
2022/04/22 08:04:43;;;;;;;20.27;18.37;;;20.00;81.80;;;;;;4958707;29;20485;-66
2022/04/22 08:07:11;;;;;;;20.47;18.77;;;20.20;81.80;;;;;;4958849;29;20915;-66
2022/04/22 08:09:38;;;;;;;21.77;19.50;;;20.30;81.70;;;;;;4958440;29;20484;-67
2022/04/22 08:12:06;;;;;;;18.67;16.97;;;20.70;80.10;;;;;;4958104;29;20475;-67
2022/04/22 08:14:33;;;;;;;19.10;17.50;;;20.80;79.80;;;;;;4958496;28;21022;-67
2022/04/22 08:17:00;;;;;;;20.30;18.70;;;20.70;78.00;;;;;;4958485;28;20834;-66
2022/04/22 08:19:27;;;;;;;21.57;19.37;;;20.90;77.60;;;;;;4958911;29;20451;-66
2022/04/22 08:21:54;;;;;;;19.40;17.50;;;21.00;78.80;;;;;;4958282;29;20526;-67
2022/04/22 08:24:22;;;;;;;20.00;18.40;;;21.30;79.90;;;;;;4958387;29;20493;-66
2022/04/22 08:26:49;;;;;;;20.33;18.63;;;21.80;73.90;;;;;;4958287;29;20455;-66
2022/04/22 08:29:16;;;;;;;18.90;17.30;;;21.90;75.10;;;;;;4957969;29;20554;-66
2022/04/22 08:31:42;;;;;;;19.20;17.60;;;22.20;75.60;;;;;;4959735;29;20483;-64
2022/04/22 08:34:09;;;;;;;18.40;16.90;;;22.00;77.10;;;;;;4957954;29;20947;-66
2022/04/22 08:36:36;;;;;;;18.27;16.77;;;22.40;80.50;;;;;;4957981;29;20459;-66
2022/04/22 08:39:04;;;;;;;19.80;18.17;;;22.60;73.30;;;;;;4957603;29;20455;-66
2022/04/22 08:41:35;;;;;;;19.63;18.03;;;22.70;70.80;;;;;;4957907;29;20567;-65
2022/04/22 08:44:02;;;;;;;17.97;16.20;;;22.20;73.70;;;;;;4957876;29;20443;-67
2022/04/22 08:52:00;;;;;;;17.63;16.23;;;23.40;68.60;;;;;;4957538;29;20986;-66
2022/04/22 08:54:28;;;;;;;19.23;17.63;;;23.70;65.80;;;;;;4957768;29;20514;-66
2022/04/22 08:56:56;;;;;;;17.67;16.27;;;23.50;68.40;;;;;;4957561;28;20462;-66
2022/04/22 08:59:25;;;;;;;18.20;16.70;;;23.50;67.40;;;;;;4957598;29;20451;-66
2022/04/22 09:01:52;;;;;;;18.37;16.87;;;23.90;67.50;;;;;;4957037;29;21007;-67
2022/04/22 09:04:20;;;;;;;17.40;16.03;;;23.90;65.10;;;;;;4957752;29;20460;-66
2022/04/22 09:06:50;;;;;;;17.07;15.77;;;23.90;66.40;;;;;;4957329;28;20963;-66
2022/04/22 09:09:18;;;;;;;17.20;15.80;;;24.00;64.40;;;;;;4957106;29;20935;-67
2022/04/22 09:11:45;;;;;;;16.90;15.30;;;24.20;66.00;;;;;;4957167;28;20475;-67
2022/04/22 09:14:18;;;;;;;17.00;15.60;;;24.30;66.20;;;;;;4957519;28;20487;-67
2022/04/22 09:16:45;;;;;;;15.57;14.37;;;24.90;64.50;;;;;;4957486;29;20439;-67
2022/04/22 09:19:12;;;;;;;17.20;15.90;;;25.30;60.30;;;;;;4957215;29;20459;-66
2022/04/22 09:21:39;;;;;;;16.10;14.90;;;24.50;59.30;;;;;;4957489;29;20480;-67
2022/04/22 09:24:14;;;;;;;15.00;13.77;;;24.10;61.70;;;;;;4957030;28;20468;-66
2022/04/22 09:26:41;;;;;;;15.83;14.30;;;24.50;62.70;;;;;;4957590;29;20498;-67
2022/04/22 09:29:10;;;;;;;16.53;15.23;;;24.90;59.80;;;;;;4956904;29;20478;-66
2022/04/22 09:31:49;;;;;;;14.87;13.77;;;24.80;59.40;;;;;;4956698;29;20479;-67
2022/04/22 09:34:32;;;;;;;14.97;13.87;;;25.30;59.60;;;;;;4957032;29;20444;-67
2022/04/22 09:42:47;;;;;;;17.17;15.77;;;26.50;60.00;;;;;;4956991;29;20419;-68
2022/04/22 09:45:14;;;;;;;16.20;15.03;;;26.70;59.70;;;;;;4956483;29;20458;-67
2022/04/22 09:47:42;;;;;;;17.73;16.37;;;26.80;57.30;;;;;;4956535;29;20817;-66
2022/04/22 09:50:11;;;;;;;17.53;15.67;;;26.50;58.70;;;;;;4956758;29;20556;-66
2022/04/22 09:52:43;;;;;;;18.47;16.73;;;26.30;57.30;;;;;;4956782;29;20460;-67
2022/04/22 09:55:13;;;;;;;16.80;15.40;;;26.40;56.20;;;;;;4956638;29;20444;-66
2022/04/22 09:57:54;;;;;;;16.57;15.17;;;26.50;58.30;;;;;;4956404;29;21112;-66
2022/04/22 10:00:21;;;;;;;18.70;17.10;;;26.60;57.80;;;;;;4956428;29;20455;-67
2022/04/22 10:02:51;;;;;;;18.40;17.00;;;26.60;57.20;;;;;;4956525;29;20444;-66
2022/04/22 10:05:20;;;;;;;17.47;15.97;;;26.60;56.70;;;;;;4956270;29;20955;-66
2022/04/22 10:07:50;;;;;;;18.10;16.70;;;26.10;56.40;;;;;;4956488;28;20537;-67
2022/04/22 10:10:18;;;;;;;18.07;16.50;;;25.50;57.90;;;;;;4956395;28;20515;-67
2022/04/22 10:12:45;;;;;;;17.63;16.20;;;25.20;57.60;;;;;;4956273;29;20954;-66
2022/04/22 10:15:12;;;;;;;17.47;16.07;;;24.90;58.50;;;;;;4956200;29;20464;-65
2022/04/22 10:17:40;;;;;;;17.17;15.87;;;24.60;58.30;;;;;;4956187;29;20534;-67
2022/04/22 10:20:10;;;;;;;18.70;17.30;;;24.20;60.70;;;;;;4956254;29;20462;-68
2022/04/22 10:22:37;;;;;;;17.83;16.17;;;24.70;61.50;;;;;;4955557;28;20475;-67
2022/04/22 10:25:07;;;;;;;17.57;15.77;;;25.00;59.70;;;;;;4956470;29;20463;-66
2022/04/22 10:27:34;;;;;;;17.27;15.97;;;25.40;59.40;;;;;;4956329;29;20815;-67
2022/04/22 10:30:02;;;;;;;18.80;16.90;;;24.90;57.80;;;;;;4956224;29;20982;-66
2022/04/22 10:32:30;;;;;;;17.43;16.03;;;24.60;59.30;;;;;;4955961;29;20479;-66
2022/04/22 10:34:59;;;;;;;17.80;16.20;;;24.50;59.30;;;;;;4956604;29;20482;-67
2022/04/22 10:37:29;;;;;;;16.80;15.50;;;24.30;63.40;;;;;;4958631;29;20466;-67
2022/04/22 10:39:57;;;;;;;18.27;16.77;;;24.60;61.90;;;;;;4957571;29;20451;-67
2022/04/22 10:42:31;;;;;;;17.33;15.87;;;24.90;59.30;;;;;;4957324;28;20506;-66
2022/04/22 10:47:49;;;;;;;17.80;16.37;;;23.70;59.40;;;;;;4957092;29;20419;-64
2022/04/22 10:50:32;;;;;;;17.57;15.90;;;23.20;60.30;;;;;;4960777;28;20530;-66
2022/04/22 10:53:03;;;;;;;16.97;15.67;;;23.10;63.90;;;;;;4956301;29;20459;-67
2022/04/22 10:55:34;;;;;;;17.33;15.93;;;23.40;62.70;;;;;;4956020;29;20495;-66
2022/04/22 10:58:20;;;;;;;18.20;16.57;;;23.60;61.30;;;;;;4957565;28;20444;-66
2022/04/22 11:00:48;;;;;;;17.17;15.77;;;23.20;63.30;;;;;;4957103;28;20483;-67
2022/04/22 11:03:17;;;;;;;16.40;15.20;;;23.40;62.80;;;;;;4956750;29;20498;-67
2022/04/22 11:05:49;;;;;;;18.07;16.67;;;23.40;62.50;;;;;;4956947;29;20555;-66
2022/04/22 11:08:24;;;;;;;18.70;17.00;;;23.70;62.80;;;;;;4958340;28;20920;-68
2022/04/22 11:11:01;;;;;;;23.43;18.00;;;23.70;65.20;;;;;;4958947;29;20888;-67
2022/04/22 11:13:29;;;;;;;16.57;15.13;;;24.10;63.50;;;;;;4957135;29;20455;-67
2022/04/22 11:16:00;;;;;;;16.57;15.30;;;24.20;62.10;;;;;;4956476;29;20464;-68
2022/04/22 11:18:27;;;;;;;17.10;15.70;;;24.40;61.90;;;;;;4957165;29;20466;-67
2022/04/22 11:21:02;;;;;;;15.77;14.47;;;24.80;59.70;;;;;;4955495;29;20991;-67
2022/04/22 11:23:37;;;;;;;14.93;13.80;;;25.00;60.70;;;;;;4956432;29;20466;-68
2022/04/22 11:26:04;;;;;;;17.50;15.97;;;25.00;58.80;;;;;;4955644;28;20847;-67
2022/04/22 11:28:34;;;;;;;15.90;14.70;;;24.90;59.00;;;;;;4955913;29;20462;-67
2022/04/22 11:31:04;;;;;;;16.13;14.80;;;25.00;61.60;;;;;;4955787;29;20484;-69
2022/04/22 11:33:44;;;;;;;17.97;16.57;;;25.00;61.30;;;;;;4956620;28;20463;-67
2022/04/22 11:36:10;;;;;;;17.50;16.10;;;24.50;59.50;;;;;;4960607;29;20451;-67
2022/04/22 11:38:47;;;;;;;17.37;15.87;;;24.30;60.60;;;;;;4960934;29;20554;-68
2022/04/22 11:41:14;;;;;;;16.37;15.07;;;24.10;62.50;;;;;;4962333;28;20529;-67
2022/04/22 11:43:41;;;;;;;15.53;14.23;;;23.80;62.80;;;;;;4960691;28;20451;-66
2022/04/22 11:46:09;;;;;;;17.13;15.73;;;23.20;61.30;;;;;;4959767;29;20455;-66
2022/04/22 11:48:44;;;;;;;17.93;16.43;;;22.60;65.40;;;;;;4958667;29;20863;-65
2022/04/22 11:51:10;;;;;;;15.87;14.57;;;22.30;63.40;;;;;;4958850;29;20485;-66
2022/04/22 11:53:37;;;;;;;18.93;14.43;;;21.90;63.40;;;;;;4958979;29;20463;-66
2022/04/22 11:56:05;;;;;;;14.70;13.30;;;21.50;64.70;;;;;;4959016;29;20466;-66
2022/04/22 11:58:33;;;;;;;15.27;13.77;;;21.50;66.40;;;;;;4958993;29;20455;-66
2022/04/22 12:06:29;;;;;;;16.50;14.90;;;21.70;62.20;;;;;;4959117;29;20443;-66
2022/04/22 12:08:57;;;;;;;14.80;13.60;;;21.90;62.60;;;;;;4958910;29;20861;-66
2022/04/22 12:11:26;;;;;;;14.30;13.17;;;22.00;66.70;;;;;;4958871;29;20487;-66
2022/04/22 12:13:54;;;;;;;13.70;12.60;;;22.20;62.50;;;;;;4958800;29;20460;-65
2022/04/22 12:16:22;;;;;;;12.30;11.20;;;22.20;64.00;;;;;;4958483;29;20463;-67
2022/04/22 12:18:50;;;;;;;12.90;11.83;;;22.40;65.00;;;;;;4958924;29;20463;-65
2022/04/22 12:21:17;;;;;;;15.57;11.70;;;22.70;62.50;;;;;;4958953;29;20523;-65
2022/04/22 12:23:46;;;;;;;14.10;13.00;;;23.00;60.60;;;;;;4959094;29;20550;-65
2022/04/22 12:26:16;;;;;;;14.20;12.90;;;22.80;60.70;;;;;;4958659;29;20576;-66
2022/04/22 12:29:01;;;;;;;13.53;12.53;;;22.80;60.50;;;;;;4959007;29;20553;-67
2022/04/22 12:31:29;;;;;;;14.10;12.90;;;22.60;61.10;;;;;;4958246;29;20515;-67
2022/04/22 12:34:00;;;;;;;13.60;12.47;;;22.50;63.60;;;;;;4958135;29;20500;-67
2022/04/22 12:36:28;;;;;;;14.60;13.50;;;22.60;60.70;;;;;;4963097;29;20944;-66
2022/04/22 12:38:54;;;;;;;13.77;12.30;;;22.80;65.20;;;;;;4964964;29;20455;-66
2022/04/22 12:41:23;;;;;;;14.43;13.23;;;23.00;65.60;;;;;;4965587;29;20475;-66
2022/04/22 12:43:51;;;;;;;14.70;13.60;;;23.10;60.50;;;;;;4966690;28;20459;-67
2022/04/22 12:52:14;;;;;;;13.87;12.20;;;23.10;59.90;;;;;;4959083;29;20483;-67
2022/04/22 12:54:43;;;;;;;13.03;12.13;;;22.90;59.20;;;;;;4958183;29;20435;-66
2022/04/22 12:57:18;;;;;;;15.20;13.63;;;22.50;62.50;;;;;;4958379;28;20488;-67
2022/04/22 12:59:46;;;;;;;14.20;13.10;;;22.50;60.80;;;;;;4958251;29;20487;-67
2022/04/22 13:02:15;;;;;;;12.23;11.20;;;22.60;61.80;;;;;;4957792;29;20507;-66
2022/04/22 13:05:07;;;;;;;15.80;14.40;;;22.80;62.50;;;;;;4958053;28;20507;-67
2022/04/22 13:07:41;;;;;;;13.37;12.37;;;23.00;62.00;;;;;;4943647;28;20546;-67
2022/04/22 13:10:09;;;;;;;16.00;14.60;;;23.40;65.90;;;;;;4957854;29;20477;-67
2022/04/22 13:12:39;;;;;;;14.97;13.60;;;23.10;59.70;;;;;;4957434;29;20498;-66
2022/04/22 13:15:07;;;;;;;14.60;13.40;;;22.70;61.40;;;;;;4957779;29;21010;-67
2022/04/22 13:17:39;;;;;;;13.70;12.60;;;22.60;61.80;;;;;;4957597;28;20982;-67
2022/04/22 13:20:07;;;;;;;15.57;14.17;;;22.50;64.20;;;;;;4958371;28;20839;-65
2022/04/22 13:22:34;;;;;;;13.57;12.37;;;22.40;60.90;;;;;;4958186;29;20510;-66
2022/04/22 13:25:01;;;;;;;14.43;13.00;;;22.10;63.60;;;;;;4958411;29;20459;-66
2022/04/22 13:27:28;;;;;;;14.70;13.33;;;22.00;61.80;;;;;;4957913;29;20459;-65
2022/04/22 13:29:54;;;;;;;14.23;13.10;;;21.80;63.40;;;;;;4958078;29;20455;-66
2022/04/22 13:32:21;;;;;;;16.13;14.73;;;21.70;65.30;;;;;;4959190;29;20986;-66
2022/04/22 13:34:49;;;;;;;16.27;14.77;;;21.80;64.80;;;;;;4960247;29;20459;-67
2022/04/22 13:37:17;;;;;;;15.80;14.13;;;21.60;64.20;;;;;;4959438;29;20947;-66
2022/04/22 13:39:44;;;;;;;13.77;12.57;;;21.80;65.40;;;;;;4960520;29;20810;-65
2022/04/22 13:42:10;;;;;;;14.50;13.10;;;22.20;69.20;;;;;;4958360;28;20977;-66
2022/04/22 13:52:58;;;;;;;13.60;12.50;;;22.60;63.50;;;;;;4937914;28;20508;-66
2022/04/22 13:55:25;;;;;;;13.60;12.50;;;22.80;61.10;;;;;;4957614;28;20849;-65
2022/04/22 13:57:51;;;;;;;15.73;14.00;;;23.00;61.90;;;;;;4957200;28;20479;-66
2022/04/22 14:00:19;;;;;;;14.90;12.20;;;22.80;60.60;;;;;;4957942;29;20800;-65
2022/04/22 14:02:45;;;;;;;13.50;12.50;;;22.60;60.80;;;;;;4956954;29;20439;-67
2022/04/22 14:05:20;;;;;;;12.97;11.87;;;22.70;63.60;;;;;;4957065;29;20932;-65
2022/04/22 14:07:48;;;;;;;15.30;14.00;;;22.90;63.90;;;;;;4957156;28;20475;-67
2022/04/22 14:10:15;;;;;;;13.40;12.00;;;22.90;61.10;;;;;;4956210;29;20459;-66
2022/04/22 14:12:41;;;;;;;13.00;12.00;;;23.00;62.60;;;;;;4956187;29;20994;-65
2022/04/22 14:15:09;;;;;;;13.37;12.47;;;23.00;60.00;;;;;;4956538;29;20460;-66
2022/04/22 14:17:36;;;;;;;13.80;12.70;;;23.10;59.80;;;;;;4956454;29;20863;-66
2022/04/22 14:20:04;;;;;;;13.80;12.70;;;23.20;61.30;;;;;;4956509;29;20880;-66
2022/04/22 14:22:32;;;;;;;11.73;10.70;;;23.30;61.00;;;;;;4956154;29;20476;-66
2022/04/22 14:24:59;;;;;;;12.77;11.77;;;23.40;59.80;;;;;;4956392;29;20514;-65
2022/04/22 14:27:26;;;;;;;12.17;11.20;;;23.50;58.70;;;;;;4956297;29;20455;-65
2022/04/22 14:29:52;;;;;;;10.50;9.27;;;23.50;57.70;;;;;;4955945;29;20459;-65
2022/04/22 14:32:19;;;;;;;10.40;9.60;;;23.40;57.70;;;;;;4955973;29;20898;-66
2022/04/22 14:34:46;;;;;;;10.47;9.43;;;23.40;59.60;;;;;;4955675;29;20460;-67
2022/04/22 14:37:13;;;;;;;10.43;9.63;;;23.40;58.00;;;;;;4955733;29;20939;-66
2022/04/22 14:39:42;;;;;;;10.50;9.60;;;23.40;58.10;;;;;;4955878;28;20531;-67
2022/04/22 14:42:09;;;;;;;12.37;11.17;;;23.50;58.80;;;;;;4955641;28;20468;-67
2022/04/22 14:44:36;;;;;;;13.07;12.13;;;23.70;58.70;;;;;;4955754;28;20542;-67
2022/04/22 14:47:03;;;;;;;11.33;10.33;;;23.80;61.10;;;;;;4955654;28;20506;-67
2022/04/22 14:49:30;;;;;;;11.47;10.47;;;23.70;60.50;;;;;;4955875;29;20512;-66
2022/04/22 14:51:58;;;;;;;9.70;9.00;;;23.90;59.70;;;;;;4955394;29;20579;-67
2022/04/22 14:54:25;;;;;;;10.30;9.50;;;23.90;56.20;;;;;;4955550;29;20463;-67
2022/04/22 14:56:53;;;;;;;9.60;8.83;;;23.90;55.80;;;;;;4955389;29;20482;-67
2022/04/22 14:59:20;;;;;;;9.97;9.27;;;23.80;57.10;;;;;;4956542;29;20482;-66
2022/04/22 15:01:46;;;;;;;9.20;8.60;;;23.70;56.00;;;;;;4955757;29;20607;-67
2022/04/22 15:04:13;;;;;;;9.40;8.80;;;23.50;55.30;;;;;;4955698;29;20467;-66
2022/04/22 15:06:40;;;;;;;10.20;9.40;;;23.50;56.20;;;;;;4955587;29;20511;-66
2022/04/22 15:09:07;;;;;;;8.90;8.10;;;23.40;56.10;;;;;;4957069;28;20470;-67
2022/04/22 15:11:34;;;;;;;9.53;8.63;;;23.50;58.00;;;;;;4959619;29;20491;-66
2022/04/22 15:14:04;;;;;;;9.57;8.97;;;23.60;56.60;;;;;;4959462;29;20459;-66
2022/04/22 15:16:31;;;;;;;12.03;10.23;;;23.50;56.50;;;;;;4959509;29;20446;-66
2022/04/22 15:24:39;;;;;;;9.80;9.00;;;23.40;56.70;;;;;;4954834;29;20519;-66
2022/04/22 15:27:05;;;;;;;9.00;8.30;;;23.30;55.90;;;;;;4959453;28;20478;-66
2022/04/22 15:29:35;;;;;;;9.10;8.30;;;23.20;56.30;;;;;;4959407;29;20451;-67
2022/04/22 15:32:03;;;;;;;8.80;8.10;;;23.20;56.70;;;;;;4959069;29;20899;-66
2022/04/22 15:34:29;;;;;;;10.10;8.00;;;22.90;57.10;;;;;;4958994;28;20583;-67
2022/04/22 15:36:57;;;;;;;7.63;7.10;;;22.80;56.10;;;;;;4959359;29;20463;-67
2022/04/22 15:39:24;;;;;;;11.73;8.20;;;22.70;58.10;;;;;;4959892;29;20471;-66
2022/04/22 15:41:54;;;;;;;14.93;8.53;;;22.40;56.80;;;;;;4958986;29;20475;-66
2022/04/22 15:44:25;;;;;;;11.87;10.77;;;22.30;57.20;;;;;;4959873;29;20444;-67
2022/04/22 15:46:54;;;;;;;11.20;10.30;;;22.00;57.30;;;;;;4958926;29;20904;-66
2022/04/22 15:49:20;;;;;;;9.07;8.27;;;21.90;58.60;;;;;;4959051;29;20462;-66
2022/04/22 15:51:47;;;;;;;9.20;8.40;;;21.80;57.70;;;;;;4959582;29;20495;-66
2022/04/22 15:54:14;;;;;;;9.50;8.80;;;21.70;58.30;;;;;;4959023;29;20459;-66
2022/04/22 15:56:41;;;;;;;9.03;8.23;;;21.70;59.30;;;;;;4958962;29;20467;-67
2022/04/22 15:59:10;;;;;;;9.13;8.13;;;21.80;58.90;;;;;;4958768;29;20463;-67
2022/04/22 16:01:37;;;;;;;9.53;8.73;;;21.90;58.60;;;;;;4958460;29;20542;-66
2022/04/22 16:04:07;;;;;;;9.37;8.47;;;21.90;58.20;;;;;;4958638;28;20459;-67
2022/04/22 16:06:37;;;;;;;8.10;7.50;;;22.00;57.90;;;;;;4958791;28;20486;-66
2022/04/22 16:09:04;;;;;;;9.20;8.50;;;22.00;58.70;;;;;;4958497;29;20998;-65
2022/04/22 16:17:02;;;;;;;8.30;7.53;;;22.00;58.90;;;;;;4958412;29;20463;-66
2022/04/22 16:19:30;;;;;;;8.13;7.10;;;21.90;58.90;;;;;;4958595;28;20467;-67
2022/04/22 16:21:58;;;;;;;8.60;7.90;;;21.90;58.60;;;;;;4957499;28;20562;-67
2022/04/22 16:24:25;;;;;;;8.00;7.50;;;21.90;58.80;;;;;;4959105;29;20459;-67
2022/04/22 16:26:51;;;;;;;8.70;8.00;;;21.90;58.70;;;;;;4958409;29;20493;-67
2022/04/22 16:29:19;;;;;;;10.37;7.20;;;21.90;59.40;;;;;;4958113;29;20456;-67
2022/04/22 16:31:46;;;;;;;7.93;7.30;;;21.80;59.10;;;;;;4958407;29;20479;-68
2022/04/22 16:34:13;;;;;;;9.23;8.47;;;21.70;60.20;;;;;;4958486;29;20534;-65
2022/04/22 16:36:41;;;;;;;8.60;7.80;;;21.60;60.60;;;;;;4957794;29;20822;-65
2022/04/22 16:39:07;;;;;;;8.67;8.07;;;21.50;60.30;;;;;;4958752;29;20456;-66
2022/04/22 16:41:34;;;;;;;10.60;8.37;;;21.30;61.30;;;;;;4958400;29;20475;-66
2022/04/22 16:44:01;;;;;;;8.20;7.37;;;21.20;60.00;;;;;;4959119;29;20455;-67
2022/04/22 16:46:29;;;;;;;8.57;7.87;;;21.20;60.70;;;;;;4958378;29;20502;-65
2022/04/22 16:48:58;;;;;;;10.10;9.00;;;21.00;61.30;;;;;;4958352;29;20860;-66
2022/04/22 16:51:25;;;;;;;10.60;8.57;;;20.90;60.80;;;;;;4958045;29;20846;-66
2022/04/22 16:53:54;;;;;;;9.90;7.90;;;20.70;61.30;;;;;;4957913;29;20462;-68
2022/04/22 16:56:21;;;;;;;13.13;7.50;;;20.60;62.00;;;;;;4957940;29;20471;-65
2022/04/22 16:58:48;;;;;;;9.00;8.30;;;20.60;62.10;;;;;;4957759;29;21003;-65
2022/04/22 17:01:15;;;;;;;8.40;7.70;;;20.60;62.30;;;;;;4957519;29;20843;-67
2022/04/22 17:03:42;;;;;;;10.93;8.70;;;20.40;62.90;;;;;;4957972;29;20460;-67
2022/04/22 17:06:09;;;;;;;12.07;9.40;;;20.40;63.00;;;;;;4959267;29;20820;-66
2022/04/22 17:08:36;;;;;;;10.67;9.20;;;20.30;63.30;;;;;;4968973;29;20459;-67
2022/04/22 17:11:04;;;;;;;8.60;7.87;;;20.10;63.10;;;;;;4964278;29;20483;-66
2022/04/22 17:13:32;;;;;;;8.07;7.47;;;20.10;63.30;;;;;;4957900;28;21056;-67
2022/04/22 17:24:26;;;;;;;9.30;8.40;;;19.70;65.10;;;;;;4903471;28;20450;-67
2022/04/22 17:26:54;;;;;;;8.13;7.43;;;19.70;65.60;;;;;;4957320;29;20888;-66
2022/04/22 17:29:23;;;;;;;8.40;7.70;;;19.70;65.40;;;;;;4956991;29;20460;-66
2022/04/22 17:31:51;;;;;;;9.10;8.17;;;19.50;66.00;;;;;;4957056;28;20519;-66
2022/04/22 17:34:17;;;;;;;9.87;9.07;;;19.40;66.20;;;;;;4957333;28;20467;-66
2022/04/22 17:36:44;;;;;;;9.70;8.30;;;19.40;66.60;;;;;;4957088;29;20459;-65
2022/04/22 17:39:11;;;;;;;8.17;7.57;;;19.40;66.50;;;;;;4957086;29;20467;-65
2022/04/22 17:41:38;;;;;;;9.33;8.20;;;19.30;66.70;;;;;;4956737;29;20539;-65
2022/04/22 17:44:07;;;;;;;8.00;7.23;;;19.20;66.80;;;;;;4956621;29;20891;-65
2022/04/22 17:46:33;;;;;;;8.30;7.67;;;19.20;68.00;;;;;;4956806;29;20456;-65
2022/04/22 17:49:01;;;;;;;7.47;6.87;;;19.10;66.70;;;;;;4956589;29;20944;-66
2022/04/22 17:51:28;;;;;;;8.00;7.27;;;19.00;67.90;;;;;;4956724;29;20475;-66
2022/04/22 17:53:54;;;;;;;8.27;7.57;;;18.90;68.10;;;;;;4956412;29;21010;-66
2022/04/22 17:56:21;;;;;;;7.97;7.27;;;18.90;67.90;;;;;;4956783;29;20466;-66
2022/04/22 17:58:48;;;;;;;8.20;7.50;;;18.70;68.50;;;;;;4956831;28;20460;-67